createdAt,value
2023-04-08T00:00:11.841Z,52.34
2023-04-08T00:01:11.758Z,48.60
2023-04-08T00:02:11.799Z,47.71
2023-04-08T00:03:11.801Z,48.85
2023-04-08T00:04:11.836Z,49.81
2023-04-08T00:05:11.684Z,47.66
2023-04-08T00:06:11.704Z,48.52
2023-04-08T00:07:11.659Z,49.76
2023-04-08T00:08:11.655Z,51.16
2023-04-08T00:09:11.683Z,54.47
2023-04-08T00:10:11.632Z,52.08
2023-04-08T00:11:11.654Z,48.13
2023-04-08T00:12:11.619Z,56.21
2023-04-08T00:13:11.618Z,57.26
2023-04-08T00:14:11.619Z,49.18
2023-04-08T00:15:11.626Z,45.83
2023-04-08T00:16:11.624Z,50.10
2023-04-08T00:17:11.636Z,50.06
2023-04-08T00:18:11.605Z,54.91
2023-04-08T00:19:11.573Z,51.57
2023-04-08T00:20:11.545Z,50.80
2023-04-08T00:21:11.581Z,50.45
2023-04-08T00:22:11.529Z,52.50
2023-04-08T00:23:11.521Z,50.59
2023-04-08T00:24:11.492Z,50.73
2023-04-08T00:25:11.495Z,51.42
2023-04-08T00:26:11.516Z,52.29
2023-04-08T00:27:11.519Z,55.21
2023-04-08T00:28:11.451Z,52.41
2023-04-08T00:29:11.461Z,49.56
2023-04-08T00:30:11.431Z,52.58
2023-04-08T00:31:11.476Z,52.61
2023-04-08T00:32:11.480Z,50.75
2023-04-08T00:33:11.454Z,55.71
2023-04-08T00:34:11.463Z,50.76
2023-04-08T00:35:11.394Z,47.74
2023-04-08T00:36:11.426Z,46.75
2023-04-08T00:37:11.372Z,51.01
2023-04-08T00:38:11.375Z,52.30
2023-04-08T00:39:11.356Z,62.63
2023-04-08T00:40:11.373Z,56.70
2023-04-08T00:41:11.336Z,48.28
2023-04-08T00:42:11.343Z,50.36
2023-04-08T00:43:11.402Z,49.37
2023-04-08T00:44:11.343Z,46.16
2023-04-08T00:45:11.324Z,46.15
2023-04-08T00:46:11.290Z,50.57
2023-04-08T00:47:11.324Z,53.06
2023-04-08T00:48:11.304Z,57.93
2023-04-08T00:49:11.301Z,50.97
2023-04-08T00:50:11.257Z,47.60
2023-04-08T00:51:11.255Z,52.23
2023-04-08T00:52:11.264Z,57.71
2023-04-08T00:53:11.371Z,50.57
2023-04-08T00:54:11.229Z,46.73
2023-04-08T00:55:11.223Z,48.81
2023-04-08T00:56:11.218Z,55.42
2023-04-08T00:57:11.208Z,51.42
2023-04-08T00:58:11.193Z,50.32
2023-04-08T00:59:11.162Z,60.89
2023-04-08T01:00:11.179Z,51.47
2023-04-08T01:01:11.262Z,48.81
2023-04-08T01:02:11.235Z,49.48
2023-04-08T01:03:11.396Z,49.10
2023-04-08T01:04:11.245Z,46.58
2023-04-08T01:05:11.135Z,61.71
2023-04-08T01:06:11.104Z,51.82
2023-04-08T01:07:11.107Z,48.27
2023-04-08T01:08:11.101Z,48.41
2023-04-08T01:09:11.087Z,54.32
2023-04-08T01:10:11.090Z,47.75
2023-04-08T01:11:11.062Z,46.51
2023-04-08T01:12:11.076Z,48.14
2023-04-08T01:13:11.066Z,49.33
2023-04-08T01:14:11.005Z,47.14
2023-04-08T01:15:11.023Z,46.44
2023-04-08T01:16:11.114Z,46.44
2023-04-08T01:17:10.991Z,49.41
2023-04-08T01:18:10.977Z,49.93
2023-04-08T01:19:10.974Z,48.44
2023-04-08T01:20:10.964Z,46.46
2023-04-08T01:21:10.984Z,50.27
2023-04-08T01:22:10.990Z,49.60
2023-04-08T01:23:10.958Z,50.20
2023-04-08T01:24:10.931Z,53.71
2023-04-08T01:25:10.920Z,48.11
2023-04-08T01:26:10.904Z,46.88
2023-04-08T01:27:10.898Z,48.77
2023-04-08T01:28:10.870Z,48.57
2023-04-08T01:29:10.909Z,49.06
2023-04-08T01:30:10.879Z,47.94
2023-04-08T01:31:10.900Z,53.96
2023-04-08T01:32:10.857Z,59.85
2023-04-08T01:33:10.861Z,49.27
2023-04-08T01:34:10.815Z,48.36
2023-04-08T01:35:10.828Z,50.46
2023-04-08T01:36:10.826Z,61.35
2023-04-08T01:37:10.871Z,53.20
2023-04-08T01:38:10.825Z,57.18
2023-04-08T01:39:10.802Z,53.24
2023-04-08T01:40:10.825Z,49.21
2023-04-08T01:41:10.868Z,48.46
2023-04-08T01:42:10.761Z,47.76
2023-04-08T01:43:10.772Z,47.86
2023-04-08T01:44:10.723Z,50.39
2023-04-08T01:45:10.737Z,49.30
2023-04-08T01:46:10.808Z,46.11
2023-04-08T01:47:10.727Z,48.86
2023-04-08T01:48:10.705Z,47.37
2023-04-08T01:49:10.722Z,47.43
2023-04-08T01:50:10.702Z,48.28
2023-04-08T01:51:10.714Z,46.16
2023-04-08T01:52:10.664Z,46.00
2023-04-08T01:53:11.683Z,49.67
2023-04-08T01:54:10.656Z,49.10
2023-04-08T01:55:10.658Z,48.71
2023-04-08T01:56:10.662Z,46.75
2023-04-08T01:57:10.639Z,46.65
2023-04-08T01:58:10.615Z,46.59
2023-04-08T01:59:10.608Z,48.04
2023-04-08T02:00:10.575Z,46.57
2023-04-08T02:01:10.616Z,47.89
2023-04-08T02:02:10.677Z,46.12
2023-04-08T02:03:10.824Z,46.17
2023-04-08T02:04:10.676Z,45.84
2023-04-08T02:05:10.560Z,45.62
2023-04-08T02:06:10.529Z,47.53
2023-04-08T02:07:10.530Z,46.66
2023-04-08T02:08:10.532Z,45.15
2023-04-08T02:09:10.538Z,51.40
2023-04-08T02:10:10.513Z,48.44
2023-04-08T02:11:10.542Z,45.96
2023-04-08T02:12:10.465Z,46.50
2023-04-08T02:13:10.498Z,48.06
2023-04-08T02:14:10.473Z,47.38
2023-04-08T02:15:10.444Z,47.79
2023-04-08T02:16:10.488Z,45.27
2023-04-08T02:17:10.455Z,45.44
2023-04-08T02:18:10.451Z,45.27
2023-04-08T02:19:10.447Z,49.48
2023-04-08T02:20:10.381Z,47.18
2023-04-08T02:21:10.399Z,45.89
2023-04-08T02:22:10.417Z,48.59
2023-04-08T02:23:10.391Z,48.39
2023-04-08T02:24:10.364Z,51.07
2023-04-08T02:25:10.362Z,46.13
2023-04-08T02:26:10.352Z,45.87
2023-04-08T02:27:42.284Z,45.60
2023-04-08T02:28:10.341Z,47.00
2023-04-08T02:29:10.337Z,46.62
2023-04-08T02:30:10.324Z,50.51
2023-04-08T02:31:10.320Z,48.40
2023-04-08T02:32:10.288Z,47.81
2023-04-08T02:33:10.348Z,46.13
2023-04-08T02:34:10.281Z,48.73
2023-04-08T02:35:11.280Z,49.91
2023-04-08T02:36:10.237Z,47.92
2023-04-08T02:37:10.213Z,47.90
2023-04-08T02:38:10.214Z,49.66
2023-04-08T02:39:10.256Z,51.32
2023-04-08T02:40:10.238Z,47.82
2023-04-08T02:41:10.290Z,47.10
2023-04-08T02:42:11.834Z,45.33
2023-04-08T02:43:11.407Z,48.55
2023-04-08T02:44:10.182Z,45.66
2023-04-08T02:45:10.184Z,47.08
2023-04-08T02:46:10.201Z,48.04
2023-04-08T02:47:10.135Z,56.50
2023-04-08T02:48:10.119Z,50.45
2023-04-08T02:49:10.127Z,47.18
2023-04-08T02:50:10.096Z,45.09
2023-04-08T02:51:10.118Z,45.82
2023-04-08T02:52:10.087Z,57.27
2023-04-08T02:53:10.060Z,48.64
2023-04-08T02:54:10.068Z,44.89
2023-04-08T02:55:10.069Z,47.20
2023-04-08T02:56:10.113Z,44.74
2023-04-08T02:57:10.032Z,44.75
2023-04-08T02:58:10.039Z,47.55
2023-04-08T02:59:10.061Z,51.31
2023-04-08T03:00:10.035Z,46.96
2023-04-08T03:01:10.038Z,48.44
2023-04-08T03:02:10.094Z,48.41
2023-04-08T03:03:10.081Z,48.42
2023-04-08T03:04:09.957Z,50.55
2023-04-08T03:05:09.975Z,51.50
2023-04-08T03:06:09.936Z,47.50
2023-04-08T03:07:09.964Z,45.47
2023-04-08T03:08:09.950Z,51.52
2023-04-08T03:09:09.943Z,49.87
2023-04-08T03:10:09.912Z,50.14
2023-04-08T03:11:09.886Z,47.17
2023-04-08T03:12:09.881Z,48.87
2023-04-08T03:13:09.901Z,45.03
2023-04-08T03:14:09.872Z,46.25
2023-04-08T03:15:09.878Z,48.01
2023-04-08T03:16:09.876Z,49.32
2023-04-08T03:17:09.861Z,53.49
2023-04-08T03:18:09.844Z,50.81
2023-04-08T03:19:09.836Z,47.14
2023-04-08T03:20:09.838Z,47.60
2023-04-08T03:21:09.840Z,51.47
2023-04-08T03:22:09.815Z,46.27
2023-04-08T03:23:09.790Z,64.07
2023-04-08T03:24:09.813Z,50.64
2023-04-08T03:25:09.781Z,52.74
2023-04-08T03:26:09.762Z,51.33
2023-04-08T03:27:09.750Z,52.12
2023-04-08T03:28:09.741Z,47.94
2023-04-08T03:29:09.744Z,54.27
2023-04-08T03:30:09.757Z,49.78
2023-04-08T03:31:09.708Z,48.69
2023-04-08T03:32:09.782Z,51.71
2023-04-08T03:33:09.772Z,67.17
2023-04-08T03:34:09.711Z,50.25
2023-04-08T03:35:09.704Z,54.00
2023-04-08T03:36:09.660Z,54.39
2023-04-08T03:37:09.668Z,50.13
2023-04-08T03:38:09.655Z,50.72
2023-04-08T03:39:09.652Z,52.86
2023-04-08T03:40:09.643Z,53.48
2023-04-08T03:41:09.636Z,51.77
2023-04-08T03:42:09.651Z,51.09
2023-04-08T03:43:09.599Z,51.01
2023-04-08T03:44:09.607Z,52.99
2023-04-08T03:45:09.588Z,52.83
2023-04-08T03:46:09.648Z,51.05
2023-04-08T03:47:09.583Z,49.40
2023-04-08T03:48:09.534Z,50.10
2023-04-08T03:49:09.540Z,52.93
2023-04-08T03:50:09.510Z,51.63
2023-04-08T03:51:09.560Z,60.16
2023-04-08T03:52:09.498Z,54.53
2023-04-08T03:53:09.498Z,52.04
2023-04-08T03:54:09.498Z,55.55
2023-04-08T03:55:09.486Z,53.56
2023-04-08T03:56:09.486Z,56.70
2023-04-08T03:57:09.522Z,65.95
2023-04-08T03:58:09.544Z,56.03
2023-04-08T03:59:09.440Z,57.25
2023-04-08T04:00:09.436Z,65.61
2023-04-08T04:01:09.460Z,56.97
2023-04-08T04:02:09.490Z,57.12
2023-04-08T04:03:09.573Z,56.88
2023-04-08T04:04:09.552Z,58.10
2023-04-08T04:05:09.358Z,58.51
2023-04-08T04:06:09.372Z,56.45
2023-04-08T04:07:09.396Z,56.82
2023-04-08T04:08:09.406Z,56.12
2023-04-08T04:09:09.351Z,56.48
2023-04-08T04:10:09.355Z,56.85
2023-04-08T04:11:09.344Z,57.39
2023-04-08T04:12:09.355Z,55.27
2023-04-08T04:13:09.312Z,55.97
2023-04-08T04:14:09.285Z,54.88
2023-04-08T04:15:09.276Z,55.80
2023-04-08T04:16:09.309Z,55.92
2023-04-08T04:17:09.260Z,55.09
2023-04-08T04:18:09.472Z,56.47
2023-04-08T04:19:09.259Z,56.37
2023-04-08T04:20:09.257Z,54.59
2023-04-08T04:21:09.223Z,54.16
2023-04-08T04:22:09.227Z,55.11
2023-04-08T04:23:09.245Z,55.77
2023-04-08T04:24:09.200Z,54.22
2023-04-08T04:25:09.185Z,54.09
2023-04-08T04:26:09.193Z,54.63
2023-04-08T04:27:09.153Z,53.28
2023-04-08T04:28:09.180Z,54.74
2023-04-08T04:29:09.136Z,55.43
2023-04-08T04:30:09.152Z,56.95
2023-04-08T04:31:09.204Z,52.97
2023-04-08T04:32:09.151Z,52.66
2023-04-08T04:33:09.112Z,55.00
2023-04-08T04:34:09.088Z,53.71
2023-04-08T04:35:09.088Z,56.35
2023-04-08T04:36:09.105Z,53.81
2023-04-08T04:37:09.092Z,63.90
2023-04-08T04:38:09.047Z,54.51
2023-04-08T04:39:09.064Z,54.79
2023-04-08T04:40:09.061Z,55.77
2023-04-08T04:41:09.079Z,54.28
2023-04-08T04:42:09.017Z,53.36
2023-04-08T04:43:08.993Z,52.37
2023-04-08T04:44:09.039Z,53.12
2023-04-08T04:45:09.029Z,53.17
2023-04-08T04:46:09.112Z,54.54
2023-04-08T04:47:08.962Z,54.19
2023-04-08T04:48:08.967Z,54.99
2023-04-08T04:49:08.947Z,53.92
2023-04-08T04:50:09.002Z,53.11
2023-04-08T04:51:08.954Z,54.53
2023-04-08T04:52:08.923Z,53.59
2023-04-08T04:53:08.913Z,53.06
2023-04-08T04:54:08.883Z,54.64
2023-04-08T04:55:08.934Z,52.03
2023-04-08T04:56:08.945Z,52.74
2023-04-08T04:57:08.896Z,54.00
2023-04-08T04:58:08.863Z,55.09
2023-04-08T04:59:08.879Z,55.63
2023-04-08T05:00:08.875Z,51.82
2023-04-08T05:01:08.861Z,56.34
2023-04-08T05:02:08.909Z,55.30
2023-04-08T05:03:08.922Z,56.39
2023-04-08T05:04:08.822Z,54.15
2023-04-08T05:05:08.807Z,53.34
2023-04-08T05:06:08.811Z,54.54
2023-04-08T05:07:08.810Z,52.27
2023-04-08T05:08:08.755Z,54.56
2023-04-08T05:09:08.764Z,58.75
2023-04-08T05:10:08.751Z,56.31
2023-04-08T05:11:08.870Z,54.44
2023-04-08T05:12:08.733Z,55.51
2023-04-08T05:13:08.782Z,53.60
2023-04-08T05:14:08.738Z,55.29
2023-04-08T05:15:08.686Z,58.71
2023-04-08T05:16:08.733Z,54.21
2023-04-08T05:17:08.663Z,54.38
2023-04-08T05:18:08.736Z,55.43
2023-04-08T05:19:08.693Z,55.11
2023-04-08T05:20:08.667Z,54.36
2023-04-08T05:21:08.649Z,58.86
2023-04-08T05:22:08.692Z,56.18
2023-04-08T05:23:08.641Z,53.84
2023-04-08T05:24:08.699Z,56.79
2023-04-08T05:25:08.624Z,55.19
2023-04-08T05:26:08.606Z,63.76
2023-04-08T05:27:08.586Z,52.47
2023-04-08T05:28:08.608Z,52.65
2023-04-08T05:29:08.585Z,52.44
2023-04-08T05:30:08.548Z,54.32
2023-04-08T05:31:08.636Z,52.09
2023-04-08T05:32:08.578Z,57.36
2023-04-08T05:33:08.579Z,58.25
2023-04-08T05:34:08.490Z,57.40
2023-04-08T05:35:08.521Z,56.65
2023-04-08T05:36:08.510Z,56.18
2023-04-08T05:37:08.521Z,58.37
2023-04-08T05:38:08.519Z,53.62
2023-04-08T05:39:08.496Z,55.77
2023-04-08T05:40:08.468Z,56.72
2023-04-08T05:41:08.444Z,53.86
2023-04-08T05:42:08.436Z,57.08
2023-04-08T05:43:08.454Z,57.27
2023-04-08T05:44:08.435Z,57.69
2023-04-08T05:45:09.436Z,65.66
2023-04-08T05:46:08.401Z,57.27
2023-04-08T05:47:08.492Z,58.35
2023-04-08T05:48:08.425Z,58.85
2023-04-08T05:49:08.424Z,55.30
2023-04-08T05:50:08.407Z,58.68
2023-04-08T05:51:08.352Z,55.98
2023-04-08T05:52:08.361Z,57.64
2023-04-08T05:53:08.357Z,55.04
2023-04-08T05:54:08.364Z,56.32
2023-04-08T05:55:08.333Z,55.69
2023-04-08T05:56:08.328Z,55.50
2023-04-08T05:57:10.258Z,56.02
2023-04-08T05:58:09.287Z,58.44
2023-04-08T05:59:08.300Z,59.76
2023-04-08T06:00:08.289Z,57.99
2023-04-08T06:01:08.262Z,55.11
2023-04-08T06:02:08.361Z,55.57
2023-04-08T06:03:08.393Z,54.08
2023-04-08T06:04:08.281Z,55.10
2023-04-08T06:05:08.235Z,54.98
2023-04-08T06:06:08.261Z,53.72
2023-04-08T06:07:08.191Z,54.85
2023-04-08T06:08:08.200Z,55.25
2023-04-08T06:09:08.170Z,57.97
2023-04-08T06:10:08.184Z,56.64
2023-04-08T06:11:08.143Z,56.00
2023-04-08T06:12:08.165Z,56.20
2023-04-08T06:13:08.140Z,56.58
2023-04-08T06:14:08.145Z,57.82
2023-04-08T06:15:08.113Z,55.62
2023-04-08T06:16:08.153Z,58.76
2023-04-08T06:17:08.074Z,55.22
2023-04-08T06:18:08.094Z,55.35
2023-04-08T06:19:08.141Z,60.30
2023-04-08T06:20:08.071Z,56.13
2023-04-08T06:21:08.075Z,55.10
2023-04-08T06:22:09.050Z,56.13
2023-04-08T06:23:08.044Z,55.86
2023-04-08T06:24:08.003Z,58.10
2023-04-08T06:25:08.023Z,55.37
2023-04-08T06:26:08.007Z,55.51
2023-04-08T06:27:08.016Z,55.18
2023-04-08T06:28:07.984Z,58.63
2023-04-08T06:29:07.998Z,56.88
2023-04-08T06:30:07.981Z,58.05
2023-04-08T06:31:08.165Z,57.31
2023-04-08T06:32:08.040Z,56.07
2023-04-08T06:33:07.948Z,56.06
2023-04-08T06:34:07.936Z,58.75
2023-04-08T06:35:07.940Z,58.19
2023-04-08T06:36:07.971Z,54.67
2023-04-08T06:37:07.908Z,56.17
2023-04-08T06:38:07.885Z,53.90
2023-04-08T06:39:07.926Z,56.42
2023-04-08T06:40:08.918Z,57.86
2023-04-08T06:41:07.926Z,55.37
2023-04-08T06:42:07.832Z,59.19
2023-04-08T06:43:07.854Z,57.23
2023-04-08T06:44:07.905Z,57.51
2023-04-08T06:45:07.883Z,60.02
2023-04-08T06:46:07.870Z,58.34
2023-04-08T06:47:07.803Z,57.89
2023-04-08T06:48:07.790Z,58.04
2023-04-08T06:49:07.766Z,55.90
2023-04-08T06:50:07.815Z,57.86
2023-04-08T06:51:07.865Z,57.25
2023-04-08T06:52:07.771Z,56.45
2023-04-08T06:53:07.743Z,57.04
2023-04-08T06:54:07.768Z,58.47
2023-04-08T06:55:07.756Z,57.99
2023-04-08T06:56:07.694Z,55.72
2023-04-08T06:57:07.698Z,55.53
2023-04-08T06:58:07.698Z,58.17
2023-04-08T06:59:07.747Z,58.25
2023-04-08T07:00:07.693Z,57.67
2023-04-08T07:01:29.670Z,58.16
2023-04-08T07:02:09.596Z,59.72
2023-04-08T07:03:07.753Z,55.40
2023-04-08T07:04:07.674Z,63.77
2023-04-08T07:05:07.639Z,59.52
2023-04-08T07:06:07.616Z,57.41
2023-04-08T07:07:07.642Z,57.70
2023-04-08T07:08:07.614Z,58.57
2023-04-08T07:09:07.612Z,57.47
2023-04-08T07:10:10.351Z,57.33
2023-04-08T07:11:07.799Z,57.41
2023-04-08T07:12:07.584Z,56.08
2023-04-08T07:13:07.625Z,56.55
2023-04-08T07:14:07.555Z,60.70
2023-04-08T07:15:07.526Z,57.30
2023-04-08T07:16:07.529Z,57.14
2023-04-08T07:17:07.675Z,55.76
2023-04-08T07:18:07.535Z,56.76
2023-04-08T07:19:07.537Z,58.00
2023-04-08T07:20:07.503Z,58.15
2023-04-08T07:21:07.490Z,58.49
2023-04-08T07:22:07.485Z,59.65
2023-04-08T07:23:07.509Z,60.39
2023-04-08T07:24:07.474Z,61.11
2023-04-08T07:25:07.461Z,58.89
2023-04-08T07:26:07.447Z,59.03
2023-04-08T07:27:07.415Z,57.50
2023-04-08T07:28:07.383Z,57.72
2023-04-08T07:29:07.416Z,56.93
2023-04-08T07:30:07.431Z,57.19
2023-04-08T07:31:07.403Z,56.88
2023-04-08T07:32:07.354Z,61.36
2023-04-08T07:33:07.371Z,59.18
2023-04-08T07:34:07.357Z,58.38
2023-04-08T07:35:08.343Z,58.88
2023-04-08T07:36:07.365Z,58.62
2023-04-08T07:37:07.340Z,61.39
2023-04-08T07:38:07.310Z,59.75
2023-04-08T07:39:07.322Z,59.58
2023-04-08T07:40:07.288Z,58.96
2023-04-08T07:41:07.259Z,59.17
2023-04-08T07:42:07.259Z,62.97
2023-04-08T07:43:07.267Z,58.60
2023-04-08T07:44:07.234Z,58.66
2023-04-08T07:45:07.334Z,59.58
2023-04-08T07:46:07.291Z,58.54
2023-04-08T07:47:07.247Z,56.97
2023-04-08T07:48:07.249Z,57.37
2023-04-08T07:49:07.208Z,59.46
2023-04-08T07:50:07.180Z,58.66
2023-04-08T07:51:08.600Z,58.79
2023-04-08T07:52:07.181Z,59.20
2023-04-08T07:53:08.221Z,59.17
2023-04-08T07:54:07.192Z,58.85
2023-04-08T07:55:07.162Z,59.11
2023-04-08T07:56:07.116Z,57.57
2023-04-08T07:57:07.185Z,58.88
2023-04-08T07:58:07.151Z,57.85
2023-04-08T07:59:07.157Z,56.89
2023-04-08T08:00:07.108Z,58.40
2023-04-08T08:01:07.089Z,65.33
2023-04-08T08:02:07.113Z,60.85
2023-04-08T08:03:07.141Z,60.99
2023-04-08T08:04:07.234Z,57.70
2023-04-08T08:05:07.110Z,58.01
2023-04-08T08:06:07.056Z,58.25
2023-04-08T08:07:07.033Z,65.59
2023-04-08T08:08:07.049Z,62.73
2023-04-08T08:09:07.004Z,62.24
2023-04-08T08:10:06.993Z,58.97
2023-04-08T08:11:07.017Z,58.10
2023-04-08T08:12:07.001Z,56.82
2023-04-08T08:13:06.984Z,58.96
2023-04-08T08:14:06.958Z,59.52
2023-04-08T08:15:06.944Z,60.83
2023-04-08T08:16:07.007Z,59.48
2023-04-08T08:17:06.962Z,57.28
2023-04-08T08:18:06.940Z,57.68
2023-04-08T08:19:06.896Z,62.83
2023-04-08T08:20:06.900Z,59.04
2023-04-08T08:21:06.913Z,58.39
2023-04-08T08:22:06.937Z,61.87
2023-04-08T08:23:07.890Z,58.48
2023-04-08T08:24:06.857Z,59.83
2023-04-08T08:25:06.877Z,59.55
2023-04-08T08:26:06.848Z,61.39
2023-04-08T08:27:38.779Z,58.98
2023-04-08T08:28:06.846Z,58.13
2023-04-08T08:29:06.871Z,57.89
2023-04-08T08:30:06.849Z,62.27
2023-04-08T08:31:06.828Z,58.40
2023-04-08T08:32:06.800Z,60.31
2023-04-08T08:33:06.795Z,59.00
2023-04-08T08:34:06.755Z,59.18
2023-04-08T08:35:06.785Z,58.00
2023-04-08T08:36:06.815Z,59.30
2023-04-08T08:37:06.761Z,58.64
2023-04-08T08:38:30.766Z,58.20
2023-04-08T08:39:14.095Z,59.24
2023-04-08T08:40:07.752Z,58.83
2023-04-08T08:41:06.728Z,58.92
2023-04-08T08:42:06.747Z,59.76
2023-04-08T08:43:06.699Z,59.22
2023-04-08T08:44:06.740Z,59.77
2023-04-08T08:45:06.650Z,59.38
2023-04-08T08:46:06.722Z,61.90
2023-04-08T08:47:06.643Z,58.42
2023-04-08T08:48:06.822Z,60.24
2023-04-08T08:49:06.651Z,59.33
2023-04-08T08:50:06.623Z,59.49
2023-04-08T08:51:06.640Z,57.40
2023-04-08T08:52:06.586Z,59.13
2023-04-08T08:53:06.586Z,61.38
2023-04-08T08:54:06.584Z,60.84
2023-04-08T08:55:21.543Z,57.28
2023-04-08T08:56:17.987Z,62.36
2023-04-08T08:57:07.591Z,59.46
2023-04-08T08:58:06.521Z,58.97
2023-04-08T08:59:06.577Z,59.52
2023-04-08T09:00:06.498Z,60.42
2023-04-08T09:01:06.567Z,59.69
2023-04-08T09:02:06.544Z,64.35
2023-04-08T09:03:06.674Z,59.30
2023-04-08T09:04:06.551Z,59.10
2023-04-08T09:05:06.687Z,58.80
2023-04-08T09:06:06.483Z,59.51
2023-04-08T09:07:06.456Z,64.17
2023-04-08T09:08:06.440Z,58.85
2023-04-08T09:09:06.431Z,60.10
2023-04-08T09:10:06.449Z,58.75
2023-04-08T09:11:06.422Z,57.43
2023-04-08T09:12:06.408Z,62.09
2023-04-08T09:13:07.399Z,65.10
2023-04-08T09:14:06.393Z,59.59
2023-04-08T09:15:06.345Z,60.41
2023-04-08T09:16:06.396Z,58.83
2023-04-08T09:17:06.346Z,60.00
2023-04-08T09:18:06.394Z,58.18
2023-04-08T09:19:06.339Z,60.10
2023-04-08T09:20:06.397Z,59.49
2023-04-08T09:21:06.322Z,59.45
2023-04-08T09:22:06.312Z,58.43
2023-04-08T09:23:06.340Z,62.22
2023-04-08T09:24:06.307Z,60.19
2023-04-08T09:25:06.311Z,60.79
2023-04-08T09:26:06.296Z,58.94
2023-04-08T09:27:06.308Z,59.30
2023-04-08T09:28:06.248Z,59.78
2023-04-08T09:29:18.830Z,58.86
2023-04-08T09:30:08.266Z,57.17
2023-04-08T09:31:06.205Z,59.67
2023-04-08T09:32:06.408Z,59.34
2023-04-08T09:33:06.217Z,59.67
2023-04-08T09:34:06.183Z,58.77
2023-04-08T09:35:07.037Z,58.30
2023-04-08T09:36:07.242Z,58.06
2023-04-08T09:37:06.187Z,58.97
2023-04-08T09:38:06.176Z,59.10
2023-04-08T09:39:06.132Z,61.50
2023-04-08T09:40:06.186Z,58.06
2023-04-08T09:41:06.140Z,59.78
2023-04-08T09:42:06.110Z,61.79
2023-04-08T09:43:07.094Z,58.59
2023-04-08T09:44:06.072Z,59.31
2023-04-08T09:45:06.090Z,58.86
2023-04-08T09:46:06.130Z,58.19
2023-04-08T09:47:06.086Z,57.32
2023-04-08T09:48:06.095Z,58.58
2023-04-08T09:49:06.041Z,60.55
2023-04-08T09:50:06.050Z,58.93
2023-04-08T09:51:06.049Z,58.11
2023-04-08T09:52:06.033Z,58.72
2023-04-08T09:53:06.017Z,59.04
2023-04-08T09:54:06.002Z,58.69
2023-04-08T09:55:05.970Z,60.54
2023-04-08T09:56:05.995Z,58.48
2023-04-08T09:57:05.974Z,59.91
2023-04-08T09:58:05.949Z,58.82
2023-04-08T09:59:06.871Z,58.41
2023-04-08T10:00:05.950Z,59.34
2023-04-08T10:01:05.947Z,59.03
2023-04-08T10:02:06.033Z,59.14
2023-04-08T10:03:06.251Z,59.06
2023-04-08T10:04:06.004Z,57.92
2023-04-08T10:05:08.258Z,58.12
2023-04-08T10:06:06.940Z,58.51
2023-04-08T10:07:05.881Z,61.13
2023-04-08T10:08:05.896Z,59.78
2023-04-08T10:09:05.840Z,61.43
2023-04-08T10:10:05.845Z,57.85
2023-04-08T10:11:05.895Z,59.43
2023-04-08T10:12:05.812Z,57.87
2023-04-08T10:13:05.842Z,61.75
2023-04-08T10:14:05.799Z,60.04
2023-04-08T10:15:05.801Z,59.82
2023-04-08T10:16:07.631Z,59.07
2023-04-08T10:17:05.848Z,57.91
2023-04-08T10:18:05.862Z,58.66
2023-04-08T10:19:05.768Z,58.28
2023-04-08T10:20:05.733Z,59.82
2023-04-08T10:21:05.742Z,57.90
2023-04-08T10:22:07.489Z,59.72
2023-04-08T10:23:05.715Z,58.53
2023-04-08T10:24:05.730Z,57.25
2023-04-08T10:25:05.718Z,57.66
2023-04-08T10:26:05.718Z,58.38
2023-04-08T10:27:05.700Z,59.17
2023-04-08T10:28:07.566Z,59.06
2023-04-08T10:29:05.649Z,60.06
2023-04-08T10:30:05.664Z,57.50
2023-04-08T10:31:05.659Z,58.79
2023-04-08T10:32:05.644Z,58.15
2023-04-08T10:33:05.684Z,57.88
2023-04-08T10:34:05.620Z,56.77
2023-04-08T10:35:05.571Z,57.49
2023-04-08T10:36:05.608Z,61.98
2023-04-08T10:37:05.580Z,62.23
2023-04-08T10:38:05.573Z,62.08
2023-04-08T10:39:05.554Z,59.73
2023-04-08T10:40:05.569Z,60.43
2023-04-08T10:41:05.626Z,59.20
2023-04-08T10:42:05.562Z,58.99
2023-04-08T10:43:05.516Z,57.53
2023-04-08T10:44:05.532Z,60.08
2023-04-08T10:45:05.481Z,57.94
2023-04-08T10:46:05.622Z,58.96
2023-04-08T10:47:05.518Z,59.18
2023-04-08T10:48:05.502Z,59.78
2023-04-08T10:49:05.494Z,59.04
2023-04-08T10:50:05.441Z,60.56
2023-04-08T10:51:05.446Z,58.42
2023-04-08T10:52:05.531Z,57.43
2023-04-08T10:53:05.398Z,58.01
2023-04-08T10:54:05.428Z,58.52
2023-04-08T10:55:05.388Z,65.44
2023-04-08T10:56:05.392Z,61.52
2023-04-08T10:57:05.378Z,59.11
2023-04-08T10:58:05.368Z,60.07
2023-04-08T10:59:05.357Z,58.92
2023-04-08T11:00:05.366Z,57.46
2023-04-08T11:01:05.471Z,59.38
2023-04-08T11:02:05.442Z,59.13
2023-04-08T11:03:05.492Z,57.65
2023-04-08T11:04:05.555Z,58.87
2023-04-08T11:05:05.327Z,55.93
2023-04-08T11:06:05.378Z,59.75
2023-04-08T11:07:05.286Z,59.45
2023-04-08T11:08:05.284Z,60.03
2023-04-08T11:09:05.261Z,59.56
2023-04-08T11:10:05.310Z,59.66
2023-04-08T11:11:05.247Z,60.43
2023-04-08T11:12:05.236Z,60.23
2023-04-08T11:13:05.278Z,61.08
2023-04-08T11:14:06.239Z,60.12
2023-04-08T11:15:05.235Z,57.33
2023-04-08T11:16:17.094Z,57.83
2023-04-08T11:17:07.182Z,57.64
2023-04-08T11:18:05.380Z,61.73
2023-04-08T11:19:05.181Z,63.62
2023-04-08T11:20:05.288Z,59.16
2023-04-08T11:21:05.134Z,58.63
2023-04-08T11:22:05.166Z,56.39
2023-04-08T11:23:05.304Z,59.66
2023-04-08T11:24:05.114Z,58.13
2023-04-08T11:25:05.122Z,57.77
2023-04-08T11:26:06.100Z,59.16
2023-04-08T11:27:05.070Z,57.83
2023-04-08T11:28:05.088Z,60.70
2023-04-08T11:29:05.098Z,57.61
2023-04-08T11:30:05.075Z,57.85
2023-04-08T11:31:05.095Z,57.31
2023-04-08T11:32:05.061Z,58.38
2023-04-08T11:33:05.060Z,56.91
2023-04-08T11:34:05.026Z,58.78
2023-04-08T11:35:05.045Z,58.42
2023-04-08T11:36:05.030Z,61.31
2023-04-08T11:37:04.964Z,59.23
2023-04-08T11:38:04.984Z,61.05
2023-04-08T11:39:04.965Z,60.27
2023-04-08T11:40:05.039Z,61.51
2023-04-08T11:41:09.579Z,56.13
2023-04-08T11:42:08.639Z,58.80
2023-04-08T11:43:04.944Z,57.80
2023-04-08T11:44:04.922Z,58.23
2023-04-08T11:45:04.911Z,57.67
2023-04-08T11:46:04.961Z,58.89
2023-04-08T11:47:04.901Z,58.50
2023-04-08T11:48:04.988Z,57.06
2023-04-08T11:49:05.871Z,58.24
2023-04-08T11:50:04.865Z,59.43
2023-04-08T11:51:04.873Z,58.31
2023-04-08T11:52:04.857Z,58.46
2023-04-08T11:53:04.823Z,59.63
2023-04-08T11:54:04.828Z,57.37
2023-04-08T11:55:04.830Z,57.30
2023-04-08T11:56:04.828Z,57.62
2023-04-08T11:57:04.840Z,57.12
2023-04-08T11:58:04.805Z,59.37
2023-04-08T11:59:04.826Z,59.17
2023-04-08T12:00:04.766Z,57.99
2023-04-08T12:01:04.778Z,57.76
2023-04-08T12:02:04.803Z,59.35
2023-04-08T12:03:04.826Z,56.96
2023-04-08T12:04:04.893Z,58.26
2023-04-08T12:05:04.732Z,56.94
2023-04-08T12:06:04.703Z,60.44
2023-04-08T12:07:04.719Z,59.46
2023-04-08T12:08:04.714Z,58.90
2023-04-08T12:09:04.668Z,58.14
2023-04-08T12:10:04.694Z,59.96
2023-04-08T12:11:18.871Z,57.48
2023-04-08T12:12:06.680Z,56.74
2023-04-08T12:13:04.703Z,57.42
2023-04-08T12:14:04.647Z,57.42
2023-04-08T12:15:04.651Z,60.46
2023-04-08T12:16:04.638Z,57.13
2023-04-08T12:17:04.605Z,56.67
2023-04-08T12:18:04.672Z,59.46
2023-04-08T12:19:04.607Z,57.59
2023-04-08T12:20:04.630Z,55.02
2023-04-08T12:21:04.641Z,57.67
2023-04-08T12:22:04.570Z,58.10
2023-04-08T12:23:04.587Z,60.54
2023-04-08T12:24:04.554Z,55.81
2023-04-08T12:25:04.570Z,56.84
2023-04-08T12:26:04.592Z,57.82
2023-04-08T12:27:04.559Z,61.16
2023-04-08T12:28:04.530Z,56.75
2023-04-08T12:29:04.525Z,56.35
2023-04-08T12:30:04.476Z,54.84
2023-04-08T12:31:04.478Z,56.57
2023-04-08T12:32:04.516Z,56.47
2023-04-08T12:33:04.470Z,56.10
2023-04-08T12:34:04.442Z,56.53
2023-04-08T12:35:04.439Z,59.36
2023-04-08T12:36:04.539Z,56.23
2023-04-08T12:37:04.396Z,60.05
2023-04-08T12:38:04.392Z,58.09
2023-04-08T12:39:04.425Z,57.45
2023-04-08T12:40:04.480Z,57.44
2023-04-08T12:41:04.429Z,56.81
2023-04-08T12:42:04.434Z,57.80
2023-04-08T12:43:04.436Z,54.67
2023-04-08T12:44:04.348Z,57.27
2023-04-08T12:45:04.377Z,57.96
2023-04-08T12:46:04.391Z,58.10
2023-04-08T12:47:04.458Z,59.61
2023-04-08T12:48:04.426Z,59.39
2023-04-08T12:49:05.660Z,58.24
2023-04-08T12:50:05.310Z,58.22
2023-04-08T12:51:04.315Z,57.44
2023-04-08T12:52:04.442Z,56.41